Arago, Minnesota
Current Conditions -  °F | °C
As of 8:11 AM on Sunday 23 Nov 2014 (Local Time) from KPKD Reporting Station
Haze Haze  
Wind Chill: 32°   Ceiling: 10000
Heat Index: 32°   Visibility: 2mi
Dew Point: 32°   Wind: 3mph
Humidity: 100%   Direction: 200°SSW
Pressure: 29.41"   Gusts: NA
Location:  46.9966°N, 95.0029°W
Report Text: KPKD 231411Z AUTO 20003KT 2SM BR OVC100 00/00 A2941 RMK AO2 UPE02 P0000 T00000000
Loading
Personal Weather Stations






























Interactive Weather Map New forecast layout! Learn more

10-Day Weather Forecast

Advertisements
Track Severe Weather on mobile